sensor_id;sensor_type;location;lat;lon;timestamp;pressure;altitude;pressure_sealevel;temperature;humidity
52319;BME280;38258;51.148;14.068;2022-12-18T00:00:07;99763.84;;;-7.36;100.00
52319;BME280;38258;51.148;14.068;2022-12-18T00:02:39;99773.03;;;-7.25;100.00
52319;BME280;38258;51.148;14.068;2022-12-18T00:05:07;99778.59;;;-7.30;100.00
52319;BME280;38258;51.148;14.068;2022-12-18T00:07:35;99677.28;;;-7.78;100.00
52319;BME280;38258;51.148;14.068;2022-12-18T00:10:03;99577.47;;;-8.29;100.00
52319;BME280;38258;51.148;14.068;2022-12-18T00:12:30;99710.53;;;-7.61;100.00
52319;BME280;38258;51.148;14.068;2022-12-18T00:14:57;99767.63;;;-7.43;100.00
52319;BME280;38258;51.148;14.068;2022-12-18T00:17:23;99794.16;;;-7.39;100.00
52319;BME280;38258;51.148;14.068;2022-12-18T00:19:50;99602.47;;;-8.61;100.00
52319;BME280;38258;51.148;14.068;2022-12-18T00:22:18;99772.50;;;-7.59;100.00
52319;BME280;38258;51.148;14.068;2022-12-18T00:24:45;99645.09;;;-8.30;100.00
52319;BME280;38258;51.148;14.068;2022-12-18T00:27:12;99665.34;;;-8.43;100.00
52319;BME280;38258;51.148;14.068;2022-12-18T00:29:40;99778.81;;;-7.66;100.00
52319;BME280;38258;51.148;14.068;2022-12-18T00:32:07;99782.28;;;-7.77;100.00
52319;BME280;38258;51.148;14.068;2022-12-18T00:34:34;99651.78;;;-8.57;100.00
52319;BME280;38258;51.148;14.068;2022-12-18T00:37:00;99617.78;;;-8.85;100.00
52319;BME280;38258;51.148;14.068;2022-12-18T00:39:29;99706.78;;;-8.31;100.00
52319;BME280;38258;51.148;14.068;2022-12-18T00:41:56;99644.69;;;-8.87;100.00
52319;BME280;38258;51.148;14.068;2022-12-18T00:44:40;99795.56;;;-8.07;100.00
52319;BME280;38258;51.148;14.068;2022-12-18T00:47:07;99678.06;;;-8.69;100.00
52319;BME280;38258;51.148;14.068;2022-12-18T00:49:34;99764.00;;;-8.48;100.00
52319;BME280;38258;51.148;14.068;2022-12-18T00:52:00;99738.28;;;-8.66;100.00
52319;BME280;38258;51.148;14.068;2022-12-18T00:54:29;99674.63;;;-9.06;100.00
52319;BME280;38258;51.148;14.068;2022-12-18T00:56:56;99706.66;;;-8.83;100.00
52319;BME280;38258;51.148;14.068;2022-12-18T00:59:22;99727.69;;;-8.60;100.00
52319;BME280;38258;51.148;14.068;2022-12-18T01:01:50;99647.72;;;-9.04;100.00
52319;BME280;38258;51.148;14.068;2022-12-18T01:04:16;99684.84;;;-8.93;100.00
52319;BME280;38258;51.148;14.068;2022-12-18T01:06:44;99788.22;;;-8.53;100.00
52319;BME280;38258;51.148;14.068;2022-12-18T01:09:11;99824.75;;;-8.14;100.00
52319;BME280;38258;51.148;14.068;2022-12-18T01:11:40;99834.97;;;-8.12;100.00
52319;BME280;38258;51.148;14.068;2022-12-18T01:14:07;99685.63;;;-8.94;100.00
52319;BME280;38258;51.148;14.068;2022-12-18T01:16:36;99837.06;;;-8.06;100.00
52319;BME280;38258;51.148;14.068;2022-12-18T01:19:04;99833.63;;;-7.95;100.00
52319;BME280;38258;51.148;14.068;2022-12-18T01:21:30;99732.09;;;-8.44;100.00
52319;BME280;38258;51.148;14.068;2022-12-18T01:24:01;99691.91;;;-8.52;100.00
52319;BME280;38258;51.148;14.068;2022-12-18T01:26:28;99673.44;;;-8.74;100.00
52319;BME280;38258;51.148;14.068;2022-12-18T01:28:57;99755.88;;;-8.56;100.00
52319;BME280;38258;51.148;14.068;2022-12-18T01:31:27;99687.56;;;-8.78;100.00
52319;BME280;38258;51.148;14.068;2022-12-18T01:33:54;99830.22;;;-7.96;100.00
52319;BME280;38258;51.148;14.068;2022-12-18T01:36:23;99652.22;;;-8.88;100.00
52319;BME280;38258;51.148;14.068;2022-12-18T01:38:51;99723.19;;;-8.39;100.00
52319;BME280;38258;51.148;14.068;2022-12-18T01:41:21;99748.19;;;-8.32;100.00
52319;BME280;38258;51.148;14.068;2022-12-18T01:43:51;99818.59;;;-7.92;100.00
52319;BME280;38258;51.148;14.068;2022-12-18T01:46:21;99827.16;;;-7.78;100.00
52319;BME280;38258;51.148;14.068;2022-12-18T01:48:51;99584.63;;;-9.37;100.00
52319;BME280;38258;51.148;14.068;2022-12-18T01:51:20;99710.94;;;-8.82;100.00
52319;BME280;38258;51.148;14.068;2022-12-18T01:53:47;99833.38;;;-8.24;100.00
52319;BME280;38258;51.148;14.068;2022-12-18T01:56:16;99832.38;;;-8.26;100.00
52319;BME280;38258;51.148;14.068;2022-12-18T01:58:51;99833.50;;;-8.34;100.00
52319;BME280;38258;51.148;14.068;2022-12-18T02:01:22;99752.88;;;-8.87;100.00
52319;BME280;38258;51.148;14.068;2022-12-18T02:03:49;99851.94;;;-8.37;100.00
52319;BME280;38258;51.148;14.068;2022-12-18T02:06:20;99777.41;;;-8.62;100.00
52319;BME280;38258;51.148;14.068;2022-12-18T02:09:00;99745.69;;;-8.93;100.00
52319;BME280;38258;51.148;14.068;2022-12-18T02:11:35;99752.53;;;-9.16;100.00
52319;BME280;38258;51.148;14.068;2022-12-18T02:14:13;99822.66;;;-8.81;100.00
52319;BME280;38258;51.148;14.068;2022-12-18T02:16:49;99859.66;;;-8.47;100.00
52319;BME280;38258;51.148;14.068;2022-12-18T02:19:34;99729.06;;;-9.37;100.00
52319;BME280;38258;51.148;14.068;2022-12-18T02:22:12;99813.94;;;-8.72;100.00
52319;BME280;38258;51.148;14.068;2022-12-18T02:24:54;99791.09;;;-9.20;100.00
52319;BME280;38258;51.148;14.068;2022-12-18T02:27:28;99622.06;;;-10.04;100.00
52319;BME280;38258;51.148;14.068;2022-12-18T02:29:57;99828.47;;;-9.05;100.00
52319;BME280;38258;51.148;14.068;2022-12-18T02:32:31;99696.94;;;-9.84;100.00
52319;BME280;38258;51.148;14.068;2022-12-18T02:35:02;99645.78;;;-10.26;100.00
52319;BME280;38258;51.148;14.068;2022-12-18T02:37:32;99659.22;;;-10.15;100.00
52319;BME280;38258;51.148;14.068;2022-12-18T02:40:03;99755.66;;;-9.78;100.00
52319;BME280;38258;51.148;14.068;2022-12-18T02:42:35;99771.22;;;-9.61;100.00
52319;BME280;38258;51.148;14.068;2022-12-18T02:45:05;99688.47;;;-10.19;100.00
52319;BME280;38258;51.148;14.068;2022-12-18T02:47:37;99672.59;;;-10.06;100.00
52319;BME280;38258;51.148;14.068;2022-12-18T02:50:18;99830.09;;;-9.30;100.00
52319;BME280;38258;51.148;14.068;2022-12-18T02:52:55;99686.00;;;-10.07;100.00
52319;BME280;38258;51.148;14.068;2022-12-18T02:55:31;99774.59;;;-9.73;100.00
52319;BME280;38258;51.148;14.068;2022-12-18T02:58:14;99780.56;;;-9.60;100.00
52319;BME280;38258;51.148;14.068;2022-12-18T03:00:51;99756.56;;;-9.66;100.00
52319;BME280;38258;51.148;14.068;2022-12-18T03:03:24;99627.84;;;-10.41;100.00
52319;BME280;38258;51.148;14.068;2022-12-18T03:05:58;99844.56;;;-9.17;100.00
52319;BME280;38258;51.148;14.068;2022-12-18T03:08:29;99821.69;;;-9.41;100.00
52319;BME280;38258;51.148;14.068;2022-12-18T03:11:03;99646.63;;;-10.49;100.00
52319;BME280;38258;51.148;14.068;2022-12-18T03:13:34;99612.06;;;-10.61;100.00
52319;BME280;38258;51.148;14.068;2022-12-18T03:16:05;99858.13;;;-9.16;100.00
52319;BME280;38258;51.148;14.068;2022-12-18T03:18:36;99879.34;;;-9.26;100.00
52319;BME280;38258;51.148;14.068;2022-12-18T03:21:09;99629.56;;;-10.52;100.00
52319;BME280;38258;51.148;14.068;2022-12-18T03:23:48;99823.00;;;-9.46;100.00
52319;BME280;38258;51.148;14.068;2022-12-18T03:26:19;99764.94;;;-9.67;100.00
52319;BME280;38258;51.148;14.068;2022-12-18T03:28:55;99786.59;;;-9.70;100.00
52319;BME280;38258;51.148;14.068;2022-12-18T03:31:26;99875.81;;;-9.40;100.00
52319;BME280;38258;51.148;14.068;2022-12-18T03:33:56;99837.44;;;-9.79;100.00
52319;BME280;38258;51.148;14.068;2022-12-18T03:36:31;99697.22;;;-10.49;100.00
52319;BME280;38258;51.148;14.068;2022-12-18T03:39:00;99839.81;;;-9.58;100.00
52319;BME280;38258;51.148;14.068;2022-12-18T03:41:29;99717.25;;;-10.41;100.00
52319;BME280;38258;51.148;14.068;2022-12-18T03:44:27;99641.09;;;-11.23;100.00
52319;BME280;38258;51.148;14.068;2022-12-18T03:47:00;99856.19;;;-9.99;100.00
52319;BME280;38258;51.148;14.068;2022-12-18T03:49:34;99762.19;;;-10.71;100.00
52319;BME280;38258;51.148;14.068;2022-12-18T03:52:07;99811.25;;;-10.24;100.00
52319;BME280;38258;51.148;14.068;2022-12-18T03:54:39;99824.25;;;-10.19;100.00
52319;BME280;38258;51.148;14.068;2022-12-18T03:57:17;99792.00;;;-10.22;100.00
52319;BME280;38258;51.148;14.068;2022-12-18T03:59:50;99903.97;;;-9.92;100.00
52319;BME280;38258;51.148;14.068;2022-12-18T04:02:22;99777.72;;;-10.66;100.00
52319;BME280;38258;51.148;14.068;2022-12-18T04:04:51;99739.28;;;-10.95;100.00
52319;BME280;38258;51.148;14.068;2022-12-18T04:07:21;99713.22;;;-11.26;100.00
52319;BME280;38258;51.148;14.068;2022-12-18T04:09:50;99646.75;;;-11.47;100.00
52319;BME280;38258;51.148;14.068;2022-12-18T04:12:23;99797.84;;;-10.78;100.00
52319;BME280;38258;51.148;14.068;2022-12-18T04:14:52;99890.44;;;-9.92;100.00
52319;BME280;38258;51.148;14.068;2022-12-18T04:17:19;99772.69;;;-10.76;100.00
52319;BME280;38258;51.148;14.068;2022-12-18T04:19:46;99905.59;;;-9.82;100.00
52319;BME280;38258;51.148;14.068;2022-12-18T04:22:13;99760.44;;;-10.49;100.00
52319;BME280;38258;51.148;14.068;2022-12-18T04:24:45;99758.38;;;-10.43;100.00
52319;BME280;38258;51.148;14.068;2022-12-18T04:27:20;99768.41;;;-10.45;100.00
52319;BME280;38258;51.148;14.068;2022-12-18T04:29:49;99816.91;;;-10.16;100.00
52319;BME280;38258;51.148;14.068;2022-12-18T04:32:21;99857.56;;;-9.81;100.00
52319;BME280;38258;51.148;14.068;2022-12-18T04:34:48;99796.13;;;-10.12;100.00
52319;BME280;38258;51.148;14.068;2022-12-18T04:37:16;99747.53;;;-10.30;100.00
52319;BME280;38258;51.148;14.068;2022-12-18T04:39:43;99739.41;;;-10.26;100.00
52319;BME280;38258;51.148;14.068;2022-12-18T04:42:18;99762.03;;;-10.05;100.00
52319;BME280;38258;51.148;14.068;2022-12-18T04:44:45;99790.88;;;-9.81;100.00
52319;BME280;38258;51.148;14.068;2022-12-18T04:47:12;99882.28;;;-9.10;100.00
52319;BME280;38258;51.148;14.068;2022-12-18T04:49:40;99918.47;;;-8.88;100.00
52319;BME280;38258;51.148;14.068;2022-12-18T04:52:07;99819.34;;;-9.49;100.00
52319;BME280;38258;51.148;14.068;2022-12-18T04:54:34;99725.16;;;-10.14;100.00
52319;BME280;38258;51.148;14.068;2022-12-18T04:57:01;99830.97;;;-9.41;100.00
52319;BME280;38258;51.148;14.068;2022-12-18T04:59:28;99905.63;;;-9.14;100.00
52319;BME280;38258;51.148;14.068;2022-12-18T05:01:55;99888.41;;;-9.18;100.00
52319;BME280;38258;51.148;14.068;2022-12-18T05:04:22;99728.00;;;-9.87;100.00
52319;BME280;38258;51.148;14.068;2022-12-18T05:06:50;99910.53;;;-8.69;100.00
52319;BME280;38258;51.148;14.068;2022-12-18T05:09:17;99716.88;;;-9.89;100.00
52319;BME280;38258;51.148;14.068;2022-12-18T05:11:43;99927.44;;;-8.70;100.00
52319;BME280;38258;51.148;14.068;2022-12-18T05:14:10;99760.31;;;-9.60;100.00
52319;BME280;38258;51.148;14.068;2022-12-18T05:16:37;99794.69;;;-9.52;100.00
52319;BME280;38258;51.148;14.068;2022-12-18T05:19:04;99905.81;;;-8.76;100.00
52319;BME280;38258;51.148;14.068;2022-12-18T05:21:31;99926.22;;;-8.63;100.00
52319;BME280;38258;51.148;14.068;2022-12-18T05:23:59;99740.09;;;-9.83;100.00
52319;BME280;38258;51.148;14.068;2022-12-18T05:26:26;99777.41;;;-9.58;100.00
52319;BME280;38258;51.148;14.068;2022-12-18T05:28:53;99742.91;;;-9.68;100.00
52319;BME280;38258;51.148;14.068;2022-12-18T05:31:23;99837.94;;;-9.27;100.00
52319;BME280;38258;51.148;14.068;2022-12-18T05:33:50;99719.25;;;-10.02;100.00
52319;BME280;38258;51.148;14.068;2022-12-18T05:36:17;99933.75;;;-9.11;100.00
52319;BME280;38258;51.148;14.068;2022-12-18T05:38:44;99916.25;;;-8.84;100.00
52319;BME280;38258;51.148;14.068;2022-12-18T05:41:12;99920.53;;;-8.95;100.00
52319;BME280;38258;51.148;14.068;2022-12-18T05:43:42;99750.53;;;-9.90;100.00
52319;BME280;38258;51.148;14.068;2022-12-18T05:46:12;99929.69;;;-8.97;100.00
52319;BME280;38258;51.148;14.068;2022-12-18T05:48:39;99761.19;;;-9.94;100.00
52319;BME280;38258;51.148;14.068;2022-12-18T05:51:08;99931.03;;;-9.02;100.00
52319;BME280;38258;51.148;14.068;2022-12-18T05:53:35;99811.59;;;-9.75;100.00
52319;BME280;38258;51.148;14.068;2022-12-18T05:56:04;99775.84;;;-9.90;100.00
52319;BME280;38258;51.148;14.068;2022-12-18T05:58:33;99822.78;;;-9.83;100.00
52319;BME280;38258;51.148;14.068;2022-12-18T06:01:07;99882.50;;;-9.41;100.00
52319;BME280;38258;51.148;14.068;2022-12-18T06:03:34;99771.34;;;-10.16;100.00
52319;BME280;38258;51.148;14.068;2022-12-18T06:08:59;99939.16;;;-9.40;100.00
52319;BME280;38258;51.148;14.068;2022-12-18T06:11:26;99938.03;;;-9.44;100.00
52319;BME280;38258;51.148;14.068;2022-12-18T06:13:55;99944.50;;;-9.70;100.00
52319;BME280;38258;51.148;14.068;2022-12-18T06:16:22;99951.38;;;-9.46;100.00
52319;BME280;38258;51.148;14.068;2022-12-18T06:18:49;99945.06;;;-9.40;100.00
52319;BME280;38258;51.148;14.068;2022-12-18T06:21:15;99935.81;;;-9.51;100.00
52319;BME280;38258;51.148;14.068;2022-12-18T06:23:42;99948.88;;;-9.57;100.00
52319;BME280;38258;51.148;14.068;2022-12-18T06:26:11;99948.53;;;-9.27;100.00
52319;BME280;38258;51.148;14.068;2022-12-18T06:28:38;99920.59;;;-9.73;100.00
52319;BME280;38258;51.148;14.068;2022-12-18T06:31:07;99950.22;;;-9.72;100.00
52319;BME280;38258;51.148;14.068;2022-12-18T06:33:34;99935.97;;;-9.82;100.00
52319;BME280;38258;51.148;14.068;2022-12-18T06:36:02;99936.09;;;-10.13;100.00
52319;BME280;38258;51.148;14.068;2022-12-18T06:38:30;99911.31;;;-10.17;100.00
52319;BME280;38258;51.148;14.068;2022-12-18T06:40:57;99955.69;;;-10.11;100.00
52319;BME280;38258;51.148;14.068;2022-12-18T06:43:24;99948.66;;;-10.25;100.00
52319;BME280;38258;51.148;14.068;2022-12-18T06:45:50;99951.94;;;-10.16;100.00
52319;BME280;38258;51.148;14.068;2022-12-18T06:48:19;99956.78;;;-10.40;100.00
52319;BME280;38258;51.148;14.068;2022-12-18T06:50:46;99922.00;;;-10.85;100.00
52319;BME280;38258;51.148;14.068;2022-12-18T06:53:13;99965.47;;;-10.69;100.00
52319;BME280;38258;51.148;14.068;2022-12-18T06:55:40;99979.50;;;-10.72;100.00
52319;BME280;38258;51.148;14.068;2022-12-18T06:58:07;99987.09;;;-10.62;100.00
52319;BME280;38258;51.148;14.068;2022-12-18T07:00:34;99978.38;;;-10.55;100.00
52319;BME280;38258;51.148;14.068;2022-12-18T07:03:00;99990.09;;;-10.45;100.00
52319;BME280;38258;51.148;14.068;2022-12-18T07:05:28;99973.19;;;-10.67;100.00
52319;BME280;38258;51.148;14.068;2022-12-18T07:07:55;99990.88;;;-10.57;100.00
52319;BME280;38258;51.148;14.068;2022-12-18T07:10:22;99988.63;;;-10.21;100.00
52319;BME280;38258;51.148;14.068;2022-12-18T07:12:48;99981.94;;;-10.20;100.00
52319;BME280;38258;51.148;14.068;2022-12-18T07:15:15;99988.91;;;-10.28;100.00
52319;BME280;38258;51.148;14.068;2022-12-18T07:17:42;99988.41;;;-10.34;100.00
52319;BME280;38258;51.148;14.068;2022-12-18T07:20:09;99973.88;;;-10.37;100.00
52319;BME280;38258;51.148;14.068;2022-12-18T07:22:38;99998.28;;;-10.38;100.00
52319;BME280;38258;51.148;14.068;2022-12-18T07:25:05;99991.78;;;-10.67;100.00
52319;BME280;38258;51.148;14.068;2022-12-18T07:27:32;99970.91;;;-10.74;100.00
52319;BME280;38258;51.148;14.068;2022-12-18T07:29:59;100006.53;;;-9.97;100.00
52319;BME280;38258;51.148;14.068;2022-12-18T07:32:26;99960.94;;;-10.30;100.00
52319;BME280;38258;51.148;14.068;2022-12-18T07:34:52;99973.16;;;-10.46;100.00
52319;BME280;38258;51.148;14.068;2022-12-18T07:37:19;100004.06;;;-10.18;100.00
52319;BME280;38258;51.148;14.068;2022-12-18T07:39:47;100012.53;;;-10.17;100.00
52319;BME280;38258;51.148;14.068;2022-12-18T07:42:13;100006.53;;;-9.97;100.00
52319;BME280;38258;51.148;14.068;2022-12-18T07:44:58;100014.53;;;-10.13;100.00
52319;BME280;38258;51.148;14.068;2022-12-18T07:47:26;100028.22;;;-10.11;100.00
52319;BME280;38258;51.148;14.068;2022-12-18T07:49:53;100037.38;;;-10.24;100.00
52319;BME280;38258;51.148;14.068;2022-12-18T07:52:20;100039.69;;;-9.94;100.00
52319;BME280;38258;51.148;14.068;2022-12-18T07:54:48;100044.59;;;-10.39;100.00
52319;BME280;38258;51.148;14.068;2022-12-18T07:57:15;100025.19;;;-10.28;100.00
52319;BME280;38258;51.148;14.068;2022-12-18T07:59:42;100046.09;;;-9.77;100.00
52319;BME280;38258;51.148;14.068;2022-12-18T08:02:09;100021.81;;;-9.53;100.00
52319;BME280;38258;51.148;14.068;2022-12-18T08:04:35;100025.94;;;-9.43;100.00
52319;BME280;38258;51.148;14.068;2022-12-18T08:07:02;100024.34;;;-9.30;100.00
52319;BME280;38258;51.148;14.068;2022-12-18T08:09:29;100012.50;;;-9.19;100.00
52319;BME280;38258;51.148;14.068;2022-12-18T08:11:57;100032.69;;;-8.87;100.00
52319;BME280;38258;51.148;14.068;2022-12-18T08:14:24;100010.94;;;-8.61;100.00
52319;BME280;38258;51.148;14.068;2022-12-18T08:16:51;99993.59;;;-8.67;100.00
52319;BME280;38258;51.148;14.068;2022-12-18T08:19:17;100018.22;;;-8.54;100.00
52319;BME280;38258;51.148;14.068;2022-12-18T08:21:44;99995.69;;;-8.49;100.00
52319;BME280;38258;51.148;14.068;2022-12-18T08:24:11;100008.66;;;-8.22;100.00
52319;BME280;38258;51.148;14.068;2022-12-18T08:26:37;100002.91;;;-8.07;100.00
52319;BME280;38258;51.148;14.068;2022-12-18T08:29:05;99934.56;;;-8.16;100.00
52319;BME280;38258;51.148;14.068;2022-12-18T08:31:32;100002.47;;;-7.78;100.00
52319;BME280;38258;51.148;14.068;2022-12-18T08:34:01;100001.31;;;-7.70;100.00
52319;BME280;38258;51.148;14.068;2022-12-18T08:36:28;100002.47;;;-7.78;100.00
52319;BME280;38258;51.148;14.068;2022-12-18T08:38:54;99975.38;;;-7.65;100.00
52319;BME280;38258;51.148;14.068;2022-12-18T08:41:21;100000.53;;;-7.57;100.00
52319;BME280;38258;51.148;14.068;2022-12-18T08:43:48;99991.78;;;-7.36;100.00
52319;BME280;38258;51.148;14.068;2022-12-18T08:46:36;99992.28;;;-6.78;100.00
52319;BME280;38258;51.148;14.068;2022-12-18T08:49:04;99971.72;;;-6.81;100.00
52319;BME280;38258;51.148;14.068;2022-12-18T08:51:31;100010.91;;;-6.65;100.00
52319;BME280;38258;51.148;14.068;2022-12-18T08:53:58;99969.94;;;-6.96;100.00
52319;BME280;38258;51.148;14.068;2022-12-18T08:56:25;100014.56;;;-6.62;100.00
52319;BME280;38258;51.148;14.068;2022-12-18T08:58:52;100008.06;;;-6.18;100.00
52319;BME280;38258;51.148;14.068;2022-12-18T09:01:20;100013.75;;;-6.74;100.00
52319;BME280;38258;51.148;14.068;2022-12-18T09:03:48;100016.28;;;-7.00;100.00
52319;BME280;38258;51.148;14.068;2022-12-18T09:06:16;99966.28;;;-7.25;100.00
52319;BME280;38258;51.148;14.068;2022-12-18T09:08:43;99996.91;;;-6.72;100.00
52319;BME280;38258;51.148;14.068;2022-12-18T09:11:20;100020.81;;;-6.96;100.00
52319;BME280;38258;51.148;14.068;2022-12-18T09:13:47;100019.59;;;-6.36;100.00
52319;BME280;38258;51.148;14.068;2022-12-18T09:16:15;99998.88;;;-6.68;100.00
52319;BME280;38258;51.148;14.068;2022-12-18T09:18:42;100028.88;;;-6.50;100.00
52319;BME280;38258;51.148;14.068;2022-12-18T09:21:12;100025.59;;;-6.61;100.00
52319;BME280;38258;51.148;14.068;2022-12-18T09:23:40;100034.81;;;-6.11;100.00
52319;BME280;38258;51.148;14.068;2022-12-18T09:26:07;100021.06;;;-5.86;100.00
52319;BME280;38258;51.148;14.068;2022-12-18T09:28:34;100029.31;;;-5.63;100.00
52319;BME280;38258;51.148;14.068;2022-12-18T09:31:05;100004.78;;;-5.19;100.00
52319;BME280;38258;51.148;14.068;2022-12-18T09:33:32;100041.00;;;-5.25;100.00
52319;BME280;38258;51.148;14.068;2022-12-18T09:36:01;100040.78;;;-5.84;100.00
52319;BME280;38258;51.148;14.068;2022-12-18T09:38:29;100049.25;;;-5.29;100.00
52319;BME280;38258;51.148;14.068;2022-12-18T09:40:59;100058.28;;;-4.92;100.00
52319;BME280;38258;51.148;14.068;2022-12-18T09:43:29;100059.56;;;-4.99;100.00
52319;BME280;38258;51.148;14.068;2022-12-18T09:46:02;100063.56;;;-5.18;100.00
52319;BME280;38258;51.148;14.068;2022-12-18T09:48:35;100059.09;;;-4.50;100.00
52319;BME280;38258;51.148;14.068;2022-12-18T09:51:07;100054.28;;;-4.00;100.00
52319;BME280;38258;51.148;14.068;2022-12-18T09:53:38;100053.31;;;-4.76;100.00
52319;BME280;38258;51.148;14.068;2022-12-18T09:56:12;100055.88;;;-4.17;100.00
52319;BME280;38258;51.148;14.068;2022-12-18T09:58:46;100052.19;;;-3.29;100.00
52319;BME280;38258;51.148;14.068;2022-12-18T10:01:16;100042.88;;;-3.12;100.00
52319;BME280;38258;51.148;14.068;2022-12-18T10:03:44;100053.28;;;-5.46;100.00
52319;BME280;38258;51.148;14.068;2022-12-18T10:06:13;100047.03;;;-3.92;100.00
52319;BME280;38258;51.148;14.068;2022-12-18T10:08:45;100051.34;;;-4.06;100.00
52319;BME280;38258;51.148;14.068;2022-12-18T10:11:32;100033.63;;;-3.25;100.00
52319;BME280;38258;51.148;14.068;2022-12-18T10:14:04;100030.19;;;-4.64;100.00
52319;BME280;38258;51.148;14.068;2022-12-18T10:16:36;100019.53;;;-4.72;100.00
52319;BME280;38258;51.148;14.068;2022-12-18T10:19:18;100002.91;;;-5.08;100.00
52319;BME280;38258;51.148;14.068;2022-12-18T10:21:57;99987.81;;;-4.60;100.00
52319;BME280;38258;51.148;14.068;2022-12-18T10:24:35;100007.91;;;-5.10;100.00
52319;BME280;38258;51.148;14.068;2022-12-18T10:27:12;99998.91;;;-4.75;100.00
52319;BME280;38258;51.148;14.068;2022-12-18T10:29:41;99965.09;;;-4.86;100.00
52319;BME280;38258;51.148;14.068;2022-12-18T10:32:13;99997.59;;;-4.83;100.00
52319;BME280;38258;51.148;14.068;2022-12-18T10:34:40;99971.78;;;-3.81;100.00
52319;BME280;38258;51.148;14.068;2022-12-18T10:37:11;99979.47;;;-4.28;100.00
52319;BME280;38258;51.148;14.068;2022-12-18T10:39:43;99968.47;;;-4.57;100.00
52319;BME280;38258;51.148;14.068;2022-12-18T10:42:13;99969.06;;;-3.69;100.00
52319;BME280;38258;51.148;14.068;2022-12-18T10:44:42;99936.19;;;-4.09;100.00
52319;BME280;38258;51.148;14.068;2022-12-18T10:47:14;99940.91;;;-4.47;100.00
52319;BME280;38258;51.148;14.068;2022-12-18T10:49:47;99955.25;;;-4.49;100.00
52319;BME280;38258;51.148;14.068;2022-12-18T10:52:18;99967.94;;;-4.51;100.00
52319;BME280;38258;51.148;14.068;2022-12-18T10:54:51;99956.22;;;-4.62;100.00
52319;BME280;38258;51.148;14.068;2022-12-18T10:57:30;99961.84;;;-4.68;100.00
52319;BME280;38258;51.148;14.068;2022-12-18T10:59:59;99971.09;;;-4.85;100.00
52319;BME280;38258;51.148;14.068;2022-12-18T11:02:33;99962.19;;;-4.92;100.00
52319;BME280;38258;51.148;14.068;2022-12-18T11:05:01;99854.22;;;-5.49;100.00
52319;BME280;38258;51.148;14.068;2022-12-18T11:07:47;99961.47;;;-4.14;100.00
52319;BME280;38258;51.148;14.068;2022-12-18T11:10:18;99969.31;;;-4.71;100.00
52319;BME280;38258;51.148;14.068;2022-12-18T11:12:45;99949.19;;;-4.66;100.00
52319;BME280;38258;51.148;14.068;2022-12-18T11:15:16;99926.53;;;-3.99;100.00
52319;BME280;38258;51.148;14.068;2022-12-18T11:17:48;99956.94;;;-4.03;100.00
52319;BME280;38258;51.148;14.068;2022-12-18T11:20:34;99967.13;;;-4.80;100.00
52319;BME280;38258;51.148;14.068;2022-12-18T11:23:04;99939.78;;;-5.11;100.00
52319;BME280;38258;51.148;14.068;2022-12-18T11:25:33;99957.56;;;-5.13;100.00
52319;BME280;38258;51.148;14.068;2022-12-18T11:28:01;99954.81;;;-5.16;100.00
52319;BME280;38258;51.148;14.068;2022-12-18T11:30:31;99905.13;;;-5.51;100.00
52319;BME280;38258;51.148;14.068;2022-12-18T11:33:03;99909.00;;;-5.43;100.00
52319;BME280;38258;51.148;14.068;2022-12-18T11:35:42;99952.19;;;-5.46;100.00
52319;BME280;38258;51.148;14.068;2022-12-18T11:38:18;99941.66;;;-5.37;100.00
52319;BME280;38258;51.148;14.068;2022-12-18T11:40:54;99944.56;;;-5.59;100.00
52319;BME280;38258;51.148;14.068;2022-12-18T11:43:26;99930.47;;;-6.09;100.00
52319;BME280;38258;51.148;14.068;2022-12-18T11:45:56;99950.03;;;-5.95;100.00
52319;BME280;38258;51.148;14.068;2022-12-18T11:48:27;99956.34;;;-6.17;100.00
52319;BME280;38258;51.148;14.068;2022-12-18T11:50:58;99928.13;;;-6.06;100.00
52319;BME280;38258;51.148;14.068;2022-12-18T11:53:27;99945.38;;;-5.74;100.00
52319;BME280;38258;51.148;14.068;2022-12-18T11:56:13;99954.03;;;-5.15;100.00
52319;BME280;38258;51.148;14.068;2022-12-18T11:58:47;99919.09;;;-5.31;100.00
52319;BME280;38258;51.148;14.068;2022-12-18T12:01:27;99929.41;;;-5.43;100.00
52319;BME280;38258;51.148;14.068;2022-12-18T12:07:16;99902.34;;;-6.11;100.00
52319;BME280;38258;51.148;14.068;2022-12-18T12:09:52;99940.19;;;-6.04;100.00
52319;BME280;38258;51.148;14.068;2022-12-18T12:12:32;99916.78;;;-6.25;100.00
52319;BME280;38258;51.148;14.068;2022-12-18T12:15:20;99951.41;;;-6.00;100.00
52319;BME280;38258;51.148;14.068;2022-12-18T12:17:53;99945.56;;;-6.40;100.00
52319;BME280;38258;51.148;14.068;2022-12-18T12:20:27;99949.66;;;-6.55;100.00
52319;BME280;38258;51.148;14.068;2022-12-18T12:23:05;99952.22;;;-6.55;100.00
52319;BME280;38258;51.148;14.068;2022-12-18T12:25:43;99960.84;;;-6.40;100.00
52319;BME280;38258;51.148;14.068;2022-12-18T12:28:22;99962.41;;;-6.55;100.00
52319;BME280;38258;51.148;14.068;2022-12-18T12:31:02;99953.53;;;-6.87;100.00
52319;BME280;38258;51.148;14.068;2022-12-18T12:33:40;99955.34;;;-6.59;100.00
52319;BME280;38258;51.148;14.068;2022-12-18T12:36:15;99964.16;;;-6.54;100.00
52319;BME280;38258;51.148;14.068;2022-12-18T12:38:49;99933.03;;;-6.36;100.00
52319;BME280;38258;51.148;14.068;2022-12-18T12:41:20;99973.88;;;-6.21;100.00
52319;BME280;38258;51.148;14.068;2022-12-18T12:44:13;99983.06;;;-6.50;100.00
52319;BME280;38258;51.148;14.068;2022-12-18T12:46:42;99992.78;;;-6.70;100.00
52319;BME280;38258;51.148;14.068;2022-12-18T12:49:13;99986.56;;;-6.62;100.00
52319;BME280;38258;51.148;14.068;2022-12-18T12:51:43;99995.53;;;-6.67;100.00
52319;BME280;38258;51.148;14.068;2022-12-18T12:54:15;100002.38;;;-6.79;100.00
52319;BME280;38258;51.148;14.068;2022-12-18T12:56:47;100007.47;;;-6.79;100.00